Time;durP1;ratioP1;P1;durP2;ratioP2;P2;SDS_P1;SDS_P2;PMS_P1;PMS_P2;Temp;Humidity;BMP_temperature;BMP_pressure;BME280_temperature;BME280_humidity;BME280_pressure;Samples;Min_cycle;Max_cycle;Signal;HPM_P1;HPM_P2
2023/01/03 00:01:53;;;;;;;54.40;23.67;;;;;;;9.94;98.94;102422.53;5028781;28;20500;-71
2023/01/03 00:04:19;;;;;;;57.95;24.75;;;;;;;10.11;99.31;102436.13;5011903;28;20085;-71
2023/01/03 00:06:47;;;;;;;61.83;26.20;;;;;;;9.97;98.89;102432.19;5024398;28;20077;-71
2023/01/03 00:09:16;;;;;;;58.42;24.25;;;;;;;10.45;96.92;102423.38;5043424;28;20037;-71
2023/01/03 00:14:33;;;;;;;55.70;25.80;;;;;;;10.28;97.86;102421.31;5030121;28;20077;-71
2023/01/03 00:16:59;;;;;;;;;;;;;;;10.45;98.52;102428.72;5032906;28;20052;-71
2023/01/03 00:19:27;;;;;;;48.75;23.40;;;;;;;10.05;98.28;102433.69;5023697;28;19917;-71
2023/01/03 00:21:53;;;;;;;53.00;24.08;;;;;;;10.54;94.64;102421.25;5036181;28;20060;-71
2023/01/03 00:24:19;;;;;;;51.63;25.10;;;;;;;10.49;95.72;102417.88;5032667;28;20049;-71
2023/01/03 00:26:46;;;;;;;60.88;25.85;;;;;;;10.03;96.84;102426.63;5022025;28;20041;-71
2023/01/03 00:29:12;;;;;;;54.08;25.65;;;;;;;10.32;95.14;102423.81;5038460;28;20387;-71
2023/01/03 00:31:39;;;;;;;54.10;25.92;;;;;;;10.60;95.51;102423.69;5036587;28;20057;-74
2023/01/03 00:34:05;;;;;;;54.08;25.58;;;;;;;10.72;92.85;102430.31;5038730;28;20037;-71
2023/01/03 00:36:31;;;;;;;50.95;24.05;;;;;;;10.31;93.83;102430.09;5019678;28;20036;-71
2023/01/03 00:38:57;;;;;;;51.85;24.08;;;;;;;10.56;94.09;102435.38;5034195;28;20723;-71
2023/01/03 00:41:22;;;;;;;48.22;23.77;;;;;;;10.65;92.64;102434.19;5027963;28;20044;-71
2023/01/03 00:43:49;;;;;;;43.58;21.55;;;;;;;10.23;93.29;102445.47;5029255;28;20068;-71
2023/01/03 00:46:17;;;;;;;50.15;22.75;;;;;;;9.73;97.59;102447.22;5029162;28;20123;-71
2023/01/03 00:48:42;;;;;;;50.15;21.45;;;;;;;9.90;96.38;102458.19;5036223;28;20143;-71
2023/01/03 00:51:13;;;;;;;48.65;21.83;;;;;;;10.65;91.90;102450.19;5028099;28;20536;-72
2023/01/03 00:53:39;;;;;;;46.88;21.17;;;;;;;10.41;92.10;102454.63;5038830;28;20055;-71
2023/01/03 00:56:07;;;;;;;43.78;21.15;;;;;;;10.31;91.53;102455.88;5038842;28;20048;-71
2023/01/03 00:58:34;;;;;;;44.58;21.10;;;;;;;9.77;91.14;102456.88;5038789;28;20064;-71
2023/01/03 01:01:13;;;;;;;45.00;20.02;;;;;;;10.02;92.18;102463.09;5032960;28;20049;-71
2023/01/03 01:03:41;;;;;;;39.90;19.33;;;;;;;10.33;90.78;102465.56;5031571;28;20451;-71
2023/01/03 01:06:12;;;;;;;40.38;18.80;;;;;;;10.03;89.71;102467.50;5033209;28;20057;-71
2023/01/03 01:08:37;;;;;;;37.90;18.35;;;;;;;10.28;89.52;102472.00;5034949;28;20056;-71
2023/01/03 01:11:03;;;;;;;43.42;20.17;;;;;;;10.09;89.93;102469.97;5035838;28;20123;-71
2023/01/03 01:13:32;;;;;;;41.13;19.15;;;;;;;10.11;90.94;102475.22;5028126;28;20050;-71
2023/01/03 01:16:18;;;;;;;44.40;19.63;;;;;;;9.57;92.37;102485.03;5033385;28;20052;-71
2023/01/03 01:18:46;;;;;;;41.63;19.77;;;;;;;10.10;90.30;102486.81;5036016;28;20064;-71
2023/01/03 01:21:18;;;;;;;39.95;18.13;;;;;;;9.99;89.26;102486.28;5027525;28;20116;-71
2023/01/03 01:23:45;;;;;;;42.20;19.33;;;;;;;9.64;90.06;102483.06;5036600;28;20041;-71
2023/01/03 01:26:15;;;;;;;38.05;19.20;;;;;;;9.55;91.99;102478.03;5032306;28;20060;-71
2023/01/03 01:28:41;;;;;;;39.67;18.77;;;;;;;9.99;89.45;102484.53;5029965;28;20486;-71
2023/01/03 01:31:07;;;;;;;46.80;19.42;;;;;;;10.02;89.67;102487.06;5040066;28;20120;-71
2023/01/03 01:33:34;;;;;;;36.17;17.92;;;;;;;9.95;90.05;102487.34;5033553;28;20045;-71
2023/01/03 01:36:08;;;;;;;38.78;18.38;;;;;;;10.17;87.90;102488.34;5034925;28;20079;-71
2023/01/03 01:38:33;;;;;;;40.38;18.98;;;;;;;9.69;90.11;102493.53;5028368;28;20673;-70
2023/01/03 01:40:59;;;;;;;43.20;20.27;;;;;;;9.90;88.83;102494.63;5041721;28;20064;-71
2023/01/03 01:46:28;;;;;;;42.63;20.08;;;;;;;9.85;88.50;102503.66;5026744;28;20080;-71
2023/01/03 01:48:59;;;;;;;47.63;20.67;;;;;;;9.82;88.71;102498.41;5036270;28;20430;-71
2023/01/03 01:51:28;;;;;;;38.53;18.90;;;;;;;10.28;85.50;102503.97;5033776;28;20853;-70
2023/01/03 01:53:55;;;;;;;45.63;21.13;;;;;;;9.64;87.31;102500.81;5041374;28;20052;-71
2023/01/03 01:56:33;;;;;;;47.75;20.95;;;;;;;9.70;87.79;102505.97;5043014;28;20096;-70
2023/01/03 01:58:59;;;;;;;45.20;21.13;;;;;;;10.10;85.64;102518.81;5036460;28;20059;-71
2023/01/03 02:01:24;;;;;;;48.85;21.92;;;;;;;9.19;91.14;102504.91;5037216;28;20406;-71
2023/01/03 02:04:00;;;;;;;42.55;19.15;;;;;;;9.54;87.45;102511.78;5038685;28;20079;-71
2023/01/03 02:06:27;;;;;;;46.92;20.30;;;;;;;9.75;86.70;102512.00;5041515;28;20045;-71
2023/01/03 02:08:53;;;;;;;45.63;21.38;;;;;;;8.98;89.47;102513.53;5041403;28;20057;-70
2023/01/03 02:14:49;;;;;;;39.83;20.10;;;;;;;9.61;85.99;102509.78;5038486;28;20135;-71
2023/01/03 02:17:25;;;;;;;44.60;21.08;;;;;;;9.82;83.63;102506.41;5038578;28;20092;-71
2023/01/03 02:20:00;;;;;;;51.78;21.33;;;;;;;8.74;88.01;102516.00;5031155;28;20119;-71
2023/01/03 02:22:35;;;;;;;42.53;21.23;;;;;;;9.36;88.02;102516.81;5037173;28;20048;-71
2023/01/03 02:25:34;;;;;;;49.03;22.25;;;;;;;9.74;83.57;102521.78;5034363;28;20052;-71
2023/01/03 02:28:25;;;;;;;47.53;21.90;;;;;;;9.60;83.68;102530.22;5041882;28;20691;-71
2023/01/03 02:31:04;;;;;;;45.05;20.48;;;;;;;8.86;86.60;102521.88;5040597;28;20049;-70
2023/01/03 02:33:47;;;;;;;50.83;21.15;;;;;;;9.42;84.01;102524.59;5036566;28;20147;-71
2023/01/03 02:36:28;;;;;;;48.75;21.90;;;;;;;8.99;85.00;102528.59;5036983;28;20044;-71
2023/01/03 02:39:07;;;;;;;48.65;21.58;;;;;;;8.94;86.51;102526.06;5041181;28;20126;-70
2023/01/03 02:41:42;;;;;;;56.38;25.90;;;;;;;9.63;85.69;102518.59;5035536;28;20049;-70
2023/01/03 02:44:32;;;;;;;52.60;24.83;;;;;;;9.14;86.62;102525.47;5041549;28;20053;-71
2023/01/03 02:47:08;;;;;;;65.57;28.45;;;;;;;9.83;88.28;102524.13;5038234;28;20055;-71
2023/01/03 02:49:49;;;;;;;69.75;31.00;;;;;;;9.68;88.06;102523.75;5037638;28;20041;-71
2023/01/03 02:52:27;;;;;;;73.88;32.42;;;;;;;9.38;90.92;102515.81;5032729;28;20203;-70
2023/01/03 02:55:05;;;;;;;69.63;33.03;;;;;;;9.88;91.97;102528.44;5040667;28;20090;-72
2023/01/03 02:57:38;;;;;;;76.57;34.05;;;;;;;10.23;89.53;102522.75;5035757;28;20509;-71
2023/01/03 03:00:10;;;;;;;77.40;32.58;;;;;;;9.79;88.82;102527.84;5030913;28;20041;-71
2023/01/03 03:02:38;;;;;;;;;;;;;;;9.99;90.84;102524.50;5032606;28;20103;-71
2023/01/03 03:05:13;;;;;;;65.80;31.48;;;;;;;10.05;88.88;102513.63;5029870;28;20019;-71
2023/01/03 03:07:39;;;;;;;78.68;33.95;;;;;;;10.30;89.40;102508.34;5037731;28;20049;-71
2023/01/03 03:13:12;;;;;;;69.18;32.15;;;;;;;10.76;84.52;102501.34;5030834;28;20072;-71
2023/01/03 03:16:03;;;;;;;64.65;31.83;;;;;;;10.62;83.19;102499.16;5032126;28;20049;-71
2023/01/03 03:18:51;;;;;;;77.28;33.90;;;;;;;10.03;85.12;102498.59;5032164;28;20814;-71
2023/01/03 03:24:59;;;;;;;75.80;32.97;;;;;;;10.68;82.08;102484.72;5033527;28;20764;-71
2023/01/03 03:28:33;;;;;;;67.65;32.03;;;;;;;10.60;81.29;102492.16;5023012;28;20053;-72
2023/01/03 03:29:56;;;;;;;86.55;33.85;;;;;;;10.58;81.56;102499.34;5040316;28;20045;-71
2023/01/03 03:32:25;;;;;;;67.78;31.13;;;;;;;10.66;80.07;102499.94;5037865;28;20068;-71
2023/01/03 03:34:53;;;;;;;67.53;30.30;;;;;;;10.34;78.76;102503.75;5042171;28;20563;-71
2023/01/03 03:37:23;;;;;;;74.55;33.22;;;;;;;10.86;79.96;102499.19;5041369;28;20045;-71
2023/01/03 03:45:39;;;;;;;79.53;35.42;;;;;;;5.48;100.00;102529.28;5028695;28;20054;-71
2023/01/03 03:48:10;;;;;;;81.18;36.70;;;;;;;5.33;100.00;102541.84;5045980;28;20147;-72
2023/01/03 03:50:42;;;;;;;95.93;37.58;;;;;;;5.29;100.00;102556.00;5039164;28;20083;-71
2023/01/03 03:53:10;;;;;;;105.13;41.45;;;;;;;5.26;100.00;102553.38;5034324;28;20056;-71
2023/01/03 03:56:04;;;;;;;106.78;41.05;;;;;;;5.28;100.00;102556.91;5035723;28;20120;-72
2023/01/03 03:58:37;;;;;;;102.28;42.63;;;;;;;5.36;100.00;102562.94;5032284;28;20056;-71
2023/01/03 04:01:05;;;;;;;104.40;43.22;;;;;;;5.30;100.00;102559.50;5041514;28;20145;-72
2023/01/03 04:03:31;;;;;;;101.50;41.97;;;;;;;5.42;100.00;102560.22;5033681;28;20395;-71
2023/01/03 04:06:12;;;;;;;110.93;44.03;;;;;;;5.39;100.00;102570.84;5044090;28;20100;-71
2023/01/03 04:08:38;;;;;;;126.40;46.92;;;;;;;5.39;100.00;102573.50;5036703;28;20944;-72
2023/01/03 04:11:04;;;;;;;105.75;41.65;;;;;;;5.52;100.00;102570.66;5041043;28;20048;-72
2023/01/03 04:13:35;;;;;;;118.03;44.55;;;;;;;5.56;100.00;102573.22;5035280;28;20815;-71
2023/01/03 04:16:02;;;;;;;103.90;43.83;;;;;;;5.60;100.00;102571.44;5034884;28;20045;-71
2023/01/03 04:18:27;;;;;;;113.82;45.35;;;;;;;5.57;100.00;102582.03;5028610;28;20640;-72
2023/01/03 04:20:53;;;;;;;118.50;43.35;;;;;;;5.71;100.00;102580.06;5035567;28;20049;-71
2023/01/03 04:23:18;;;;;;;111.65;42.67;;;;;;;5.66;100.00;102584.56;5034712;28;20823;-71
2023/01/03 04:25:43;;;;;;;87.43;34.33;;;;;;;5.66;100.00;102574.84;5036038;28;20556;-71
2023/01/03 04:28:09;;;;;;;69.80;30.13;;;;;;;5.35;100.00;102579.72;5038408;28;20044;-72
2023/01/03 04:30:34;;;;;;;67.50;30.95;;;;;;;5.33;100.00;102589.44;5033447;28;20491;-72
2023/01/03 04:33:04;;;;;;;65.80;31.33;;;;;;;5.26;100.00;102582.47;5025718;28;20127;-72
2023/01/03 04:35:33;;;;;;;71.40;28.95;;;;;;;5.16;100.00;102586.13;5025453;28;20880;-72
2023/01/03 04:37:58;;;;;;;60.78;26.80;;;;;;;5.05;100.00;102588.03;5028291;28;20372;-72
2023/01/03 04:40:24;;;;;;;63.45;27.15;;;;;;;4.87;100.00;102595.31;5023773;28;20645;-71
2023/01/03 04:45:34;;;;;;;55.90;26.55;;;;;;;4.52;100.00;102595.69;5035795;28;20149;-72
2023/01/03 04:48:00;;;;;;;55.25;26.30;;;;;;;4.54;100.00;102595.66;5033009;28;20055;-72
2023/01/03 04:50:25;;;;;;;55.78;25.73;;;;;;;4.30;100.00;102589.72;5038792;28;20048;-71
2023/01/03 04:52:50;;;;;;;55.85;27.67;;;;;;;4.22;100.00;102588.94;5035537;28;20041;-71
2023/01/03 04:55:16;;;;;;;53.20;24.48;;;;;;;4.22;100.00;102598.59;5032045;28;20784;-71
2023/01/03 04:57:41;;;;;;;59.25;26.60;;;;;;;4.06;100.00;102589.94;5027038;28;20594;-71
2023/01/03 05:00:07;;;;;;;55.28;24.45;;;;;;;3.90;100.00;102586.53;5038643;28;20047;-71
2023/01/03 05:02:33;;;;;;;58.10;25.67;;;;;;;3.89;100.00;102595.34;5030015;28;20075;-71
2023/01/03 05:04:59;;;;;;;53.72;24.83;;;;;;;3.81;100.00;102591.88;5030081;28;20933;-71
2023/01/03 05:07:26;;;;;;;56.55;25.77;;;;;;;3.69;100.00;102600.75;5028074;28;20513;-72
2023/01/03 05:09:52;;;;;;;59.22;25.00;;;;;;;3.63;100.00;102593.75;5039673;28;20049;-71
2023/01/03 05:12:17;;;;;;;58.58;26.02;;;;;;;3.53;100.00;102594.72;5033516;28;20049;-71
2023/01/03 05:14:43;;;;;;;61.72;25.15;;;;;;;3.54;100.00;102591.19;5032852;28;20051;-72
2023/01/03 05:17:08;;;;;;;54.05;25.35;;;;;;;3.52;100.00;102592.09;5036874;28;20036;-71
2023/01/03 05:25:48;;;;;;;56.45;25.13;;;;;;;3.35;100.00;102592.16;5039677;28;20044;-72
2023/01/03 05:27:48;;;;;;;54.15;24.60;;;;;;;3.13;100.00;102594.03;5034378;28;20099;-72
2023/01/03 05:30:13;;;;;;;51.10;24.50;;;;;;;3.22;100.00;102583.47;5036302;28;20057;-72
2023/01/03 05:32:39;;;;;;;58.97;23.67;;;;;;;3.28;100.00;102590.47;5040858;28;20111;-71
2023/01/03 05:35:06;;;;;;;54.47;26.52;;;;;;;3.19;100.00;102583.47;5044020;28;20040;-71
2023/01/03 05:37:31;;;;;;;59.30;26.35;;;;;;;3.21;100.00;102584.31;5042225;28;20069;-71
2023/01/03 05:39:57;;;;;;;53.80;24.00;;;;;;;3.11;100.00;102590.50;5043728;28;20127;-72
2023/01/03 05:42:22;;;;;;;53.53;25.65;;;;;;;3.08;100.00;102593.19;5042010;28;20049;-74
2023/01/03 05:44:48;;;;;;;56.97;25.05;;;;;;;2.91;100.00;102594.97;5041251;28;20079;-71
2023/01/03 05:47:13;;;;;;;63.55;23.85;;;;;;;2.79;100.00;102596.78;5039969;28;20049;-71
2023/01/03 05:49:39;;;;;;;58.65;24.13;;;;;;;2.80;100.00;102597.66;5038868;28;20037;-73
2023/01/03 05:52:04;;;;;;;51.15;24.27;;;;;;;2.80;100.00;102605.56;5035881;28;20411;-71
2023/01/03 05:54:30;;;;;;;60.33;25.90;;;;;;;2.71;100.00;102600.31;5042867;28;20437;-72
2023/01/03 05:56:55;;;;;;;67.50;24.45;;;;;;;2.83;100.00;102598.53;5037571;28;20556;-72
2023/01/03 05:59:21;;;;;;;48.67;23.02;;;;;;;2.93;100.00;102588.84;5039559;28;20041;-71
2023/01/03 06:01:47;;;;;;;43.90;22.38;;;;;;;2.91;100.00;102592.34;5031948;28;20110;-72
2023/01/03 06:04:13;;;;;;;48.72;21.45;;;;;;;2.75;100.00;102595.03;5040627;28;20044;-72
2023/01/03 06:06:38;;;;;;;45.42;22.85;;;;;;;2.69;100.00;102592.41;5034342;28;20052;-71
2023/01/03 06:09:04;;;;;;;52.17;23.45;;;;;;;2.72;100.00;102587.16;5037955;28;20061;-72
2023/01/03 06:11:29;;;;;;;48.30;22.52;;;;;;;2.82;100.00;102590.66;5031188;28;20638;-72
2023/01/03 06:13:55;;;;;;;56.60;23.35;;;;;;;2.75;100.00;102586.25;5043417;28;20425;-72
2023/01/03 06:19:05;;;;;;;36.05;19.83;;;;;;;2.82;100.00;102583.63;5039554;28;20113;-71
2023/01/03 06:21:31;;;;;;;38.22;19.52;;;;;;;2.81;100.00;102573.97;5040892;28;20045;-72
2023/01/03 06:23:56;;;;;;;42.92;21.75;;;;;;;2.84;100.00;102575.69;5036775;28;20044;-72
2023/01/03 06:26:24;;;;;;;48.08;20.38;;;;;;;2.75;100.00;102571.31;5041192;28;20041;-72
2023/01/03 06:28:50;;;;;;;45.10;21.50;;;;;;;2.71;100.00;102574.88;5032586;28;20037;-72
2023/01/03 06:31:16;;;;;;;34.30;18.63;;;;;;;2.76;100.00;102580.09;5040010;28;20075;-72
2023/01/03 06:33:42;;;;;;;47.28;20.55;;;;;;;2.84;100.00;102583.59;5038655;28;20056;-72
2023/01/03 06:36:17;;;;;;;43.55;21.10;;;;;;;2.81;100.00;102581.88;5020575;28;20049;-71
2023/01/03 06:38:43;;;;;;;52.20;22.77;;;;;;;2.90;100.00;102585.34;5040813;28;20045;-72
2023/01/03 06:41:10;;;;;;;56.63;22.10;;;;;;;2.97;100.00;102584.44;5036898;28;20630;-72
2023/01/03 06:43:36;;;;;;;62.90;22.48;;;;;;;2.98;100.00;102580.94;5036032;28;20055;-72
2023/01/03 06:54:22;;;;;;;48.35;20.52;;;;;;;2.92;100.00;102573.06;5039560;28;20174;-72
2023/01/03 06:56:49;;;;;;;54.42;20.73;;;;;;;2.94;100.00;102572.16;5038243;28;20053;-71
2023/01/03 06:59:15;;;;;;;58.15;22.05;;;;;;;3.03;100.00;102587.94;5037801;28;20486;-71
2023/01/03 07:01:41;;;;;;;42.63;19.15;;;;;;;2.88;100.00;102577.44;5030102;28;20048;-71
2023/01/03 07:04:07;;;;;;;49.58;20.48;;;;;;;3.00;100.00;102571.25;5034603;28;20125;-71
2023/01/03 07:06:32;;;;;;;57.25;21.42;;;;;;;2.96;100.00;102558.97;5037186;28;20053;-71
2023/01/03 07:08:58;;;;;;;48.38;21.10;;;;;;;2.88;100.00;102560.78;5037967;28;20048;-71
2023/01/03 07:11:23;;;;;;;56.47;23.42;;;;;;;2.93;100.00;102565.13;5024946;28;20530;-72
2023/01/03 07:13:59;;;;;;;39.47;20.95;;;;;;;3.09;100.00;102566.81;5038900;28;20049;-71
2023/01/03 07:16:30;;;;;;;55.47;20.88;;;;;;;2.85;100.00;102559.88;5029278;28;20088;-72
2023/01/03 07:18:56;;;;;;;51.78;23.30;;;;;;;2.85;100.00;102569.53;5036962;28;20041;-72
2023/01/03 07:21:23;;;;;;;51.70;21.17;;;;;;;2.73;100.00;102566.97;5029763;28;20628;-72
2023/01/03 07:23:50;;;;;;;48.15;21.75;;;;;;;2.67;100.00;102567.00;5034516;28;20046;-71
2023/01/03 07:26:16;;;;;;;44.70;20.25;;;;;;;2.59;100.00;102570.50;5036842;28;20056;-72
2023/01/03 07:28:41;;;;;;;46.60;20.60;;;;;;;2.72;100.00;102562.59;5030808;28;20045;-72
2023/01/03 07:31:07;;;;;;;47.47;21.40;;;;;;;2.70;100.00;102556.41;5033780;28;20507;-71
2023/01/03 07:33:32;;;;;;;51.03;22.55;;;;;;;2.76;100.00;102551.13;5034576;28;20048;-72
2023/01/03 07:36:00;;;;;;;43.95;21.05;;;;;;;2.85;100.00;102551.97;5031645;28;20083;-72
2023/01/03 07:38:26;;;;;;;49.55;20.92;;;;;;;2.69;100.00;102563.44;5036047;28;20132;-71
2023/01/03 07:40:54;;;;;;;52.30;24.98;;;;;;;2.77;100.00;102564.31;5014394;28;20959;-72
2023/01/03 07:43:38;;;;;;;43.35;20.15;;;;;;;2.73;100.00;102557.31;5017474;28;20623;-72
2023/01/03 07:46:13;;;;;;;37.42;18.27;;;;;;;2.54;100.00;102563.50;5032108;28;20096;-71
2023/01/03 07:48:39;;;;;;;36.40;18.00;;;;;;;2.59;100.00;102578.41;5025825;28;20064;-71
2023/01/03 07:51:06;;;;;;;38.40;18.70;;;;;;;2.57;100.00;102576.66;5031637;28;20060;-71
2023/01/03 07:53:33;;;;;;;42.58;20.98;;;;;;;2.74;100.00;102582.75;5047299;28;20053;-71
2023/01/03 07:56:07;;;;;;;38.33;19.33;;;;;;;3.08;100.00;102572.97;5027330;28;20142;-71
2023/01/03 07:58:34;;;;;;;45.80;21.08;;;;;;;2.95;100.00;102586.19;5036322;28;20364;-72
2023/01/03 08:01:06;;;;;;;47.75;19.20;;;;;;;2.96;100.00;102590.56;5032235;28;20053;-72
2023/01/03 08:03:33;;;;;;;50.00;22.10;;;;;;;3.20;100.00;102585.22;5036687;28;20115;-72
2023/01/03 08:06:20;;;;;;;52.92;21.42;;;;;;;3.24;100.00;102588.72;5031758;28;20164;-71
2023/01/03 08:13:16;;;;;;;51.45;19.98;;;;;;;3.11;100.00;102579.97;5038716;28;20776;-72
2023/01/03 08:14:15;;;;;;;48.70;19.25;;;;;;;3.55;100.00;102577.09;5037260;28;20131;-72
2023/01/03 08:16:40;;;;;;;56.65;20.50;;;;;;;3.66;100.00;102587.56;5030864;28;20037;-72
2023/01/03 08:19:06;;;;;;;44.97;20.88;;;;;;;3.65;100.00;102585.84;5029662;28;20052;-72
2023/01/03 08:21:31;;;;;;;47.47;19.50;;;;;;;3.79;100.00;102572.56;5030895;28;20654;-71
2023/01/03 08:23:56;;;;;;;49.28;19.08;;;;;;;3.80;100.00;102574.31;5036585;28;20495;-71
2023/01/03 08:26:22;;;;;;;39.45;18.85;;;;;;;3.68;100.00;102571.75;5030891;28;20699;-71
2023/01/03 08:28:47;;;;;;;48.22;20.98;;;;;;;3.73;100.00;102573.47;5021305;28;20056;-73
2023/01/03 08:31:20;;;;;;;43.83;19.73;;;;;;;3.75;100.00;102569.06;5025746;28;20778;-71
2023/01/03 08:33:52;;;;;;;45.05;21.48;;;;;;;3.99;100.00;102581.19;5020513;28;20046;-71
2023/01/03 08:36:19;;;;;;;47.27;19.93;;;;;;;4.05;100.00;102599.63;5031453;28;20106;-71
2023/01/03 08:38:51;;;;;;;49.60;20.27;;;;;;;4.08;100.00;102596.09;5030063;28;21177;-71
2023/01/03 08:41:20;;;;;;;43.15;19.40;;;;;;;4.38;100.00;102598.47;5035185;28;20061;-71
2023/01/03 08:43:47;;;;;;;45.28;20.23;;;;;;;4.77;100.00;102603.34;5034313;28;20053;-71
2023/01/03 08:46:15;;;;;;;43.03;20.90;;;;;;;4.93;100.00;102594.38;5030504;28;20041;-72
2023/01/03 08:48:41;;;;;;;51.95;21.35;;;;;;;5.14;100.00;102595.88;5033802;28;20053;-71
2023/01/03 08:51:07;;;;;;;43.45;19.30;;;;;;;5.34;100.00;102587.69;5034058;28;20215;-71
2023/01/03 08:53:32;;;;;;;43.33;19.52;;;;;;;5.44;100.00;102573.44;5034745;28;20125;-70
2023/01/03 08:55:58;;;;;;;42.75;19.33;;;;;;;5.51;100.00;102571.56;5036801;28;20797;-71
2023/01/03 08:58:23;;;;;;;43.55;18.35;;;;;;;5.58;100.00;102578.53;5037297;28;20041;-71
2023/01/03 09:00:49;;;;;;;42.85;17.30;;;;;;;5.53;100.00;102591.81;5035065;28;20045;-70
2023/01/03 09:03:14;;;;;;;39.85;17.48;;;;;;;5.58;100.00;102595.28;5033544;28;20819;-72
2023/01/03 09:05:39;;;;;;;39.58;19.13;;;;;;;5.62;100.00;102596.09;5037529;28;20056;-71
2023/01/03 09:08:05;;;;;;;34.08;16.50;;;;;;;5.57;100.00;102604.13;5038929;28;20764;-71
2023/01/03 09:10:31;;;;;;;42.75;17.25;;;;;;;5.67;100.00;102603.09;5040187;28;20045;-71
2023/01/03 09:12:56;;;;;;;33.50;15.73;;;;;;;5.68;100.00;102610.13;5039565;28;20060;-71
2023/01/03 09:15:22;;;;;;;42.70;18.92;;;;;;;5.88;100.00;102603.66;5042196;28;20057;-70
2023/01/03 09:17:48;;;;;;;34.53;16.63;;;;;;;6.00;100.00;102606.13;5030361;28;20053;-71
2023/01/03 09:20:16;;;;;;;44.33;16.98;;;;;;;6.08;100.00;102608.69;5041126;28;20818;-71
2023/01/03 09:22:42;;;;;;;36.22;14.35;;;;;;;6.02;100.00;102609.63;5036904;28;20043;-72
2023/01/03 09:25:08;;;;;;;28.98;15.27;;;;;;;6.12;100.00;102611.22;5034501;28;20045;-71
2023/01/03 09:27:33;;;;;;;29.23;13.15;;;;;;;6.21;100.00;102618.16;5033505;28;20049;-71
2023/01/03 09:29:59;;;;;;;33.92;15.85;;;;;;;6.15;100.00;102618.25;5037205;28;20045;-71
2023/01/03 09:32:25;;;;;;;30.25;14.00;;;;;;;6.00;100.00;102616.72;5028977;28;20095;-70
2023/01/03 09:34:50;;;;;;;27.98;14.00;;;;;;;6.08;100.00;102613.97;5041298;28;20048;-71
2023/01/03 09:37:15;;;;;;;31.85;14.82;;;;;;;6.12;100.00;102613.00;5042854;28;20496;-71
2023/01/03 09:39:41;;;;;;;35.10;15.23;;;;;;;6.22;100.00;102617.25;5038844;28;20406;-71
2023/01/03 09:44:59;;;;;;;30.42;15.25;;;;;;;6.29;100.00;102607.44;5040817;28;20132;-71
2023/01/03 09:47:25;;;;;;;37.20;14.63;;;;;;;6.40;100.00;102618.72;5036251;28;20044;-71
2023/01/03 09:49:53;;;;;;;32.65;15.52;;;;;;;6.53;100.00;102611.44;5042552;28;20049;-71
2023/01/03 10:04:21;;;;;;;33.63;15.25;;;;;;;6.55;100.00;102602.53;5041184;28;20109;-71
2023/01/03 10:06:58;;;;;;;27.15;14.52;;;;;;;6.51;100.00;102590.25;5033349;28;20347;-71
2023/01/03 10:09:38;;;;;;;29.65;14.60;;;;;;;6.58;100.00;102588.38;5036594;28;20049;-71
2023/01/03 10:12:30;;;;;;;34.38;13.88;;;;;;;6.60;100.00;102597.16;5036029;28;20075;-71
2023/01/03 10:15:01;;;;;;;27.75;15.02;;;;;;;6.71;100.00;102595.19;5038694;28;20060;-71
2023/01/03 10:17:41;;;;;;;26.70;14.68;;;;;;;6.65;100.00;102596.16;5035825;28;20041;-71
2023/01/03 10:20:21;;;;;;;28.65;15.45;;;;;;;6.61;100.00;102591.81;5036851;28;20064;-71
2023/01/03 10:22:47;;;;;;;35.53;16.33;;;;;;;6.74;100.00;102595.13;5036536;28;20108;-71
2023/01/03 10:25:20;;;;;;;38.95;16.75;;;;;;;6.76;100.00;102595.97;5035958;28;20942;-71
2023/01/03 10:27:59;;;;;;;;;;;;;;;6.85;100.00;102601.09;5034861;28;20063;-72
2023/01/03 10:30:52;;;;;;;36.92;18.10;;;;;;;6.82;100.00;102595.84;5035709;28;19966;-71
2023/01/03 10:33:32;;;;;;;42.72;17.58;;;;;;;6.87;100.00;102598.41;5030951;28;20065;-72
2023/01/03 10:35:58;;;;;;;34.22;15.48;;;;;;;6.87;100.00;102593.09;5031271;28;20080;-71
2023/01/03 10:38:25;;;;;;;36.28;14.68;;;;;;;6.83;100.00;102594.06;5032000;28;20061;-71
2023/01/03 10:40:56;;;;;;;33.70;16.35;;;;;;;6.79;100.00;102597.69;5039895;28;20049;-71
2023/01/03 10:43:39;;;;;;;42.20;16.98;;;;;;;6.84;100.00;102593.19;5035909;28;20486;-72
2023/01/03 10:46:16;;;;;;;40.13;14.13;;;;;;;7.00;100.00;102590.19;5035886;28;20052;-71
2023/01/03 10:48:47;;;;;;;34.78;13.05;;;;;;;7.03;100.00;102586.59;5039299;28;20040;-71
2023/01/03 10:51:37;;;;;;;25.33;11.50;;;;;;;7.09;100.00;102581.16;5035918;28;20056;-71
2023/01/03 10:54:31;;;;;;;30.08;13.40;;;;;;;7.16;100.00;102580.13;5033757;28;20116;-71
2023/01/03 10:56:57;;;;;;;28.70;12.70;;;;;;;7.11;100.00;102583.78;5007953;28;20588;-71
2023/01/03 10:59:28;;;;;;;32.35;12.55;;;;;;;7.14;100.00;102571.34;5034512;28;20045;-71
2023/01/03 11:02:15;;;;;;;28.25;12.27;;;;;;;7.25;100.00;102566.66;5032453;28;20548;-71
2023/01/03 11:04:42;;;;;;;26.73;12.18;;;;;;;7.30;100.00;102565.69;5025291;28;20124;-70
2023/01/03 11:07:15;;;;;;;30.65;12.55;;;;;;;7.27;100.00;102564.84;5031968;28;20060;-71
2023/01/03 11:09:51;;;;;;;32.88;12.80;;;;;;;7.31;100.00;102563.00;5033756;28;20102;-71
2023/01/03 11:12:36;;;;;;;35.22;13.05;;;;;;;7.23;100.00;102562.31;5028261;28;20053;-72
2023/01/03 11:15:31;;;;;;;28.40;12.55;;;;;;;7.29;100.00;102562.16;5028489;28;20128;-71
2023/01/03 11:17:59;;;;;;;28.77;12.18;;;;;;;7.22;100.00;102565.84;5021460;28;20060;-71
2023/01/03 11:20:38;;;;;;;24.48;11.15;;;;;;;7.31;100.00;102563.00;5037200;28;20098;-71
2023/01/03 11:23:15;;;;;;;37.53;12.15;;;;;;;7.34;100.00;102560.28;5035166;28;20085;-71
2023/01/03 11:25:46;;;;;;;27.63;11.60;;;;;;;7.32;100.00;102564.72;5040301;28;20048;-71
2023/01/03 11:28:32;;;;;;;28.20;11.65;;;;;;;7.43;100.00;102561.84;5041565;28;20068;-71
2023/01/03 11:31:02;;;;;;;25.85;11.50;;;;;;;7.54;100.00;102565.16;5033305;28;20044;-71
2023/01/03 11:34:05;;;;;;;25.83;11.10;;;;;;;7.62;100.00;102554.31;5032301;28;20057;-70
2023/01/03 11:36:58;;;;;;;22.17;10.52;;;;;;;7.69;100.00;102559.47;5034754;28;20041;-70
2023/01/03 11:39:23;;;;;;;;;;;;;;;7.81;100.00;102549.47;5030115;28;20057;-71
2023/01/03 11:41:54;;;;;;;21.90;11.18;;;;;;;7.78;100.00;102543.31;5040838;28;19916;-71
2023/01/03 11:44:30;;;;;;;25.35;12.30;;;;;;;7.86;100.00;102547.56;5039311;28;20798;-72
2023/01/03 11:47:13;;;;;;;27.80;11.57;;;;;;;7.74;100.00;102535.47;5038046;28;20080;-72
2023/01/03 11:49:57;;;;;;;26.20;10.82;;;;;;;7.96;100.00;102535.81;5029394;28;20147;-71
2023/01/03 11:52:28;;;;;;;25.23;11.68;;;;;;;7.87;100.00;102522.75;5040734;28;20049;-71
2023/01/03 11:55:18;;;;;;;27.00;10.93;;;;;;;7.82;100.00;102519.34;5035483;28;20052;-71
2023/01/03 11:58:04;;;;;;;20.70;11.02;;;;;;;7.94;100.00;102525.22;5025918;28;20085;-71
2023/01/03 12:01:06;;;;;;;24.45;11.52;;;;;;;7.85;100.00;102533.41;5039050;28;20839;-71
2023/01/03 12:03:53;;;;;;;28.08;12.65;;;;;;;7.88;100.00;102524.47;5017177;28;20624;-71
2023/01/03 12:06:41;;;;;;;29.55;13.73;;;;;;;7.75;100.00;102515.97;5016873;28;20050;-70
2023/01/03 12:09:09;;;;;;;30.38;12.95;;;;;;;7.93;100.00;102507.53;5016686;28;20103;-71
2023/01/03 12:11:59;;;;;;;35.00;15.20;;;;;;;7.92;100.00;102510.22;5017609;28;20042;-71
2023/01/03 12:14:30;;;;;;;26.33;14.00;;;;;;;7.95;100.00;102500.41;5015384;28;20053;-71
2023/01/03 12:17:18;;;;;;;35.45;13.68;;;;;;;7.93;100.00;102498.69;5016872;28;20057;-72
2023/01/03 12:19:49;;;;;;;27.05;12.05;;;;;;;7.93;100.00;102496.94;5015103;28;20052;-71
2023/01/03 12:22:32;;;;;;;21.48;11.65;;;;;;;8.11;100.00;102502.66;5014853;28;20505;-71
2023/01/03 12:25:01;;;;;;;25.83;12.52;;;;;;;8.07;100.00;102499.19;5016861;28;20077;-71
2023/01/03 12:27:37;;;;;;;22.70;11.45;;;;;;;8.00;100.00;102494.97;5012972;28;20120;-71